createdAt,value
2022-12-01T00:04:44.896Z,9.64
2022-12-01T00:10:04.667Z,10.02
2022-12-01T00:15:06.264Z,10.16
2022-12-01T00:20:08.023Z,9.80
2022-12-01T00:25:09.572Z,9.65
2022-12-01T00:30:11.979Z,9.67
2022-12-01T00:35:13.740Z,10.06
2022-12-01T00:40:15.198Z,9.95
2022-12-01T00:45:16.693Z,8.48
2022-12-01T00:50:18.156Z,9.14
2022-12-01T00:55:19.608Z,9.41
2022-12-01T01:00:21.211Z,9.81
2022-12-01T01:05:23.276Z,9.19
2022-12-01T01:10:24.740Z,8.88
2022-12-01T01:15:26.193Z,9.31
2022-12-01T01:20:27.768Z,9.85
2022-12-01T01:25:29.227Z,9.82
2022-12-01T01:30:30.737Z,9.13
2022-12-01T01:35:32.237Z,9.42
2022-12-01T01:40:33.682Z,9.80
2022-12-01T01:45:35.292Z,10.12
2022-12-01T01:50:36.806Z,10.24
2022-12-01T01:55:38.254Z,9.53
2022-12-01T02:00:40.569Z,10.27
2022-12-01T02:05:42.028Z,9.13
2022-12-01T02:10:58.707Z,9.84
2022-12-01T02:16:08.088Z,10.31
2022-12-01T02:21:28.387Z,9.76
2022-12-01T02:26:49.206Z,9.60
2022-12-01T02:32:05.389Z,9.26
2022-12-01T02:37:43.830Z,9.82
2022-12-01T02:43:08.436Z,9.87
2022-12-01T02:48:28.110Z,10.10
2022-12-01T02:53:29.580Z,10.32
2022-12-01T02:58:31.110Z,10.15
2022-12-01T03:03:45.051Z,9.83
2022-12-01T03:09:15.728Z,10.14
2022-12-01T03:14:24.874Z,10.51
2022-12-01T03:19:34.787Z,10.27
2022-12-01T03:24:36.275Z,10.00
2022-12-01T03:29:41.291Z,9.63
2022-12-01T03:34:45.976Z,9.75
2022-12-01T03:39:48.456Z,8.89
2022-12-01T03:44:53.406Z,9.82
2022-12-01T03:49:54.900Z,10.41
2022-12-01T03:55:12.733Z,9.65
2022-12-01T04:00:14.465Z,9.83
2022-12-01T04:05:17.317Z,8.95
2022-12-01T04:10:20.407Z,8.51
2022-12-01T04:15:21.867Z,8.98
2022-12-01T04:20:23.334Z,9.22
2022-12-01T04:25:24.805Z,10.23
2022-12-01T04:30:26.254Z,10.08
2022-12-01T04:35:27.713Z,9.03
2022-12-01T04:40:29.161Z,8.90
2022-12-01T04:45:30.625Z,9.66
2022-12-01T04:50:32.079Z,9.31
2022-12-01T04:55:38.888Z,10.02
2022-12-01T05:00:40.441Z,10.61
2022-12-01T05:05:41.956Z,10.37
2022-12-01T05:10:43.439Z,10.77
2022-12-01T05:15:44.890Z,10.21
2022-12-01T05:20:58.019Z,9.91
2022-12-01T05:25:59.637Z,10.41
2022-12-01T05:31:01.245Z,10.89
2022-12-01T05:36:02.807Z,10.38
2022-12-01T05:41:04.308Z,10.36
2022-12-01T05:46:05.965Z,10.87
2022-12-01T05:51:09.159Z,11.10
2022-12-01T05:56:10.735Z,11.45
2022-12-01T06:01:12.200Z,11.33
2022-12-01T06:06:13.669Z,11.36
2022-12-01T06:11:15.122Z,11.39
2022-12-01T06:16:16.609Z,11.38
2022-12-01T06:21:18.074Z,11.52
2022-12-01T06:26:19.551Z,11.28
2022-12-01T06:31:21.055Z,11.09
2022-12-01T06:36:22.557Z,11.44
2022-12-01T06:41:24.085Z,11.42
2022-12-01T06:46:25.866Z,11.19
2022-12-01T06:51:27.412Z,10.67
2022-12-01T06:56:28.893Z,10.66
2022-12-01T07:01:30.653Z,10.56
2022-12-01T07:06:32.284Z,10.43
2022-12-01T07:11:36.313Z,10.78
2022-12-01T07:16:37.835Z,10.71
2022-12-01T07:21:39.371Z,10.90
2022-12-01T07:26:41.267Z,11.28
2022-12-01T07:31:42.812Z,11.11
2022-12-01T07:36:44.258Z,11.19
2022-12-01T07:41:45.711Z,11.12
2022-12-01T07:46:47.225Z,11.03
2022-12-01T07:51:48.720Z,11.27
2022-12-01T07:56:50.247Z,11.25
2022-12-01T08:01:51.829Z,11.33
2022-12-01T08:06:53.324Z,11.26
2022-12-01T08:11:54.821Z,11.13
2022-12-01T08:16:56.274Z,10.98
2022-12-01T08:21:57.757Z,10.96
2022-12-01T08:26:59.203Z,11.15
2022-12-01T08:32:00.655Z,10.95
2022-12-01T08:37:02.143Z,10.82
2022-12-01T08:42:03.670Z,11.06
2022-12-01T08:47:05.126Z,10.83
2022-12-01T08:52:06.605Z,10.69
2022-12-01T08:57:08.125Z,10.31
2022-12-01T09:02:14.144Z,10.99
2022-12-01T09:07:19.146Z,10.99
2022-12-01T09:12:24.427Z,10.86
2022-12-01T09:17:25.923Z,10.80
2022-12-01T09:22:27.385Z,10.97
2022-12-01T09:27:28.831Z,10.91
2022-12-01T09:32:30.288Z,11.07
2022-12-01T09:37:31.751Z,10.99
2022-12-01T09:42:35.492Z,10.92
2022-12-01T09:47:37.371Z,10.93
2022-12-01T09:52:41.174Z,11.11
2022-12-01T09:57:43.013Z,10.94
2022-12-01T10:03:08.696Z,11.03
2022-12-01T10:08:13.316Z,10.58
2022-12-01T10:13:20.335Z,11.12
2022-12-01T10:18:36.103Z,10.95
2022-12-01T10:24:05.459Z,11.30
2022-12-01T10:29:29.630Z,11.07
2022-12-01T10:34:35.464Z,10.99
2022-12-01T10:39:38.163Z,11.20
2022-12-01T10:44:40.171Z,11.32
2022-12-01T10:49:41.644Z,11.59
2022-12-01T10:54:43.103Z,11.52
2022-12-01T11:00:00.343Z,11.36
2022-12-01T11:05:05.628Z,11.60
2022-12-01T11:10:21.694Z,11.71
2022-12-01T11:15:25.902Z,11.77
2022-12-01T11:20:35.488Z,11.78
2022-12-01T11:25:36.999Z,11.79
2022-12-01T11:30:38.469Z,11.71
2022-12-01T11:35:39.921Z,11.80
2022-12-01T11:40:59.200Z,11.53
2022-12-01T11:46:05.575Z,11.51
2022-12-01T11:51:08.026Z,11.61
2022-12-01T11:56:20.732Z,11.77
2022-12-01T12:01:35.059Z,11.75
2022-12-01T12:06:52.448Z,11.57
2022-12-01T12:12:16.974Z,11.83
2022-12-01T12:17:39.876Z,11.79
2022-12-01T12:23:12.356Z,11.84
2022-12-01T12:28:24.539Z,11.98
2022-12-01T12:33:30.197Z,11.73
2022-12-01T12:38:37.561Z,11.34
2022-12-01T12:43:58.414Z,11.35
2022-12-01T12:49:25.784Z,11.52
2022-12-01T12:54:48.347Z,11.65
2022-12-01T12:59:53.483Z,11.40
2022-12-01T13:05:10.322Z,11.39
2022-12-01T13:10:22.761Z,11.28
2022-12-01T13:15:24.241Z,11.24
2022-12-01T13:20:27.802Z,11.22
2022-12-01T13:25:34.595Z,11.52
2022-12-01T13:30:36.083Z,11.69
2022-12-01T13:35:37.911Z,11.89
2022-12-01T13:40:39.442Z,11.73
2022-12-01T13:45:40.894Z,11.79
2022-12-01T13:50:48.303Z,11.54
2022-12-01T13:56:01.321Z,11.70
2022-12-01T14:01:41.603Z,11.89
2022-12-01T14:06:50.419Z,11.99
2022-12-01T14:12:02.616Z,11.68
2022-12-01T14:17:04.211Z,11.78
2022-12-01T14:22:06.402Z,11.92
2022-12-01T14:27:07.947Z,11.76
2022-12-01T14:32:09.236Z,11.69
2022-12-01T14:37:16.249Z,11.73
2022-12-01T14:42:51.239Z,11.56
2022-12-01T14:47:57.870Z,11.42
2022-12-01T14:53:21.310Z,11.37
2022-12-01T14:58:25.847Z,11.08
2022-12-01T15:03:32.072Z,11.40
2022-12-01T15:09:10.690Z,11.20
2022-12-01T15:13:56.686Z,11.41
2022-12-01T15:18:58.227Z,11.39
2022-12-01T15:24:04.483Z,11.08
2022-12-01T15:29:14.492Z,11.34
2022-12-01T15:34:17.861Z,11.53
2022-12-01T15:39:29.715Z,11.05
2022-12-01T15:44:35.680Z,11.00
2022-12-01T15:49:48.191Z,10.39
2022-12-01T15:54:49.919Z,10.01
2022-12-01T15:59:53.980Z,10.70
2022-12-01T16:05:14.340Z,11.32
2022-12-01T16:10:33.098Z,10.67
2022-12-01T16:15:42.528Z,10.97
2022-12-01T16:20:43.838Z,10.44
2022-12-01T16:25:47.283Z,10.93
2022-12-01T16:30:48.776Z,11.36
2022-12-01T16:35:50.441Z,11.09
2022-12-01T16:40:53.441Z,11.10
2022-12-01T16:45:58.102Z,10.69
2022-12-01T16:51:02.522Z,11.32
2022-12-01T16:56:04.055Z,11.51
2022-12-01T17:01:06.144Z,11.58
2022-12-01T17:06:07.905Z,11.33
2022-12-01T17:11:09.600Z,11.16
2022-12-01T17:16:16.748Z,11.51
2022-12-01T17:21:19.718Z,11.63
2022-12-01T17:26:21.336Z,11.77
2022-12-01T17:31:22.910Z,11.62
2022-12-01T17:36:24.440Z,11.87
2022-12-01T17:41:32.099Z,11.56
2022-12-01T17:46:33.673Z,11.51
2022-12-01T17:51:36.310Z,11.68
2022-12-01T17:56:37.773Z,11.65
2022-12-01T18:01:41.037Z,11.70
2022-12-01T18:06:42.921Z,11.74
2022-12-01T18:11:44.474Z,11.50
2022-12-01T18:16:45.969Z,11.20
2022-12-01T18:21:47.769Z,11.34
2022-12-01T18:26:49.434Z,11.34
2022-12-01T18:31:52.807Z,11.47
2022-12-01T18:36:54.256Z,11.36
2022-12-01T18:41:56.202Z,11.42
2022-12-01T18:46:58.907Z,11.53
2022-12-01T18:52:00.423Z,10.94
2022-12-01T18:57:01.886Z,11.45
2022-12-01T19:02:03.407Z,11.51
2022-12-01T19:07:04.892Z,11.29
2022-12-01T19:12:06.535Z,11.63
2022-12-01T19:17:08.014Z,11.57
2022-12-01T19:22:09.480Z,11.67
2022-12-01T19:27:10.958Z,11.64
2022-12-01T19:32:12.460Z,11.51
2022-12-01T19:37:14.013Z,11.66
2022-12-01T19:42:15.506Z,11.55
2022-12-01T19:47:21.885Z,11.45
2022-12-01T19:52:23.959Z,11.17
2022-12-01T19:57:25.418Z,11.33
2022-12-01T20:02:29.324Z,11.18
2022-12-01T20:07:31.138Z,11.06
2022-12-01T20:12:34.048Z,10.73
2022-12-01T20:17:36.560Z,10.73
2022-12-01T20:22:38.075Z,10.87
2022-12-01T20:27:39.659Z,10.71
2022-12-01T20:32:41.116Z,10.82
2022-12-01T20:37:42.580Z,10.75
2022-12-01T20:42:44.030Z,10.88
2022-12-01T20:47:45.875Z,10.61
2022-12-01T20:52:47.328Z,10.93
2022-12-01T20:57:48.823Z,11.00
2022-12-01T21:02:50.456Z,10.84
2022-12-01T21:07:52.290Z,11.25
2022-12-01T21:13:17.936Z,11.16
2022-12-01T21:18:24.771Z,11.16
2022-12-01T21:23:26.232Z,11.41
2022-12-01T21:28:27.711Z,11.40
2022-12-01T21:33:33.346Z,10.77
2022-12-01T21:38:34.843Z,11.33
2022-12-01T21:43:38.398Z,11.22
2022-12-01T21:48:40.184Z,11.27
2022-12-01T21:53:41.666Z,11.11
2022-12-01T21:58:43.166Z,11.30
2022-12-01T22:03:45.109Z,11.27
2022-12-01T22:08:47.150Z,11.18
2022-12-01T22:14:10.077Z,11.17
2022-12-01T22:19:29.384Z,11.23
2022-12-01T22:24:39.961Z,11.13
2022-12-01T22:29:45.759Z,11.22
2022-12-01T22:34:53.692Z,11.29
2022-12-01T22:39:55.787Z,11.24
2022-12-01T22:45:02.594Z,11.14
2022-12-01T22:50:20.920Z,11.37
2022-12-01T22:55:22.406Z,11.39
2022-12-01T23:00:24.319Z,11.38
2022-12-01T23:05:27.230Z,10.99
2022-12-01T23:10:29.857Z,10.78
2022-12-01T23:15:38.002Z,11.25
2022-12-01T23:20:39.653Z,11.43
2022-12-01T23:25:41.381Z,11.19
2022-12-01T23:30:44.375Z,11.08
2022-12-01T23:35:46.885Z,11.03
2022-12-01T23:40:49.169Z,11.21
2022-12-01T23:45:55.612Z,11.23
2022-12-01T23:50:57.072Z,10.49
2022-12-01T23:56:05.345Z,10.95
